sensor_id;sensor_type;location;lat;lon;timestamp;temperature;humidity
10911;DHT22;5508;49.150;11.030;2023-11-22T00:02:53;3.30;99.90
10911;DHT22;5508;49.150;11.030;2023-11-22T00:05:54;3.20;99.90
10911;DHT22;5508;49.150;11.030;2023-11-22T00:08:54;3.20;99.90
10911;DHT22;5508;49.150;11.030;2023-11-22T00:11:55;3.20;99.90
10911;DHT22;5508;49.150;11.030;2023-11-22T00:14:55;3.20;99.90
10911;DHT22;5508;49.150;11.030;2023-11-22T00:17:56;3.10;99.90
10911;DHT22;5508;49.150;11.030;2023-11-22T00:20:58;3.10;99.90
10911;DHT22;5508;49.150;11.030;2023-11-22T00:24:00;3.10;99.90
10911;DHT22;5508;49.150;11.030;2023-11-22T00:27:00;3.10;99.90
10911;DHT22;5508;49.150;11.030;2023-11-22T00:30:01;3.10;99.90
10911;DHT22;5508;49.150;11.030;2023-11-22T00:33:01;3.00;99.90
10911;DHT22;5508;49.150;11.030;2023-11-22T00:36:02;3.00;99.90
10911;DHT22;5508;49.150;11.030;2023-11-22T00:39:04;3.00;99.90
10911;DHT22;5508;49.150;11.030;2023-11-22T00:42:05;2.90;99.90
10911;DHT22;5508;49.150;11.030;2023-11-22T00:45:07;2.90;99.90
10911;DHT22;5508;49.150;11.030;2023-11-22T00:48:08;2.90;99.90
10911;DHT22;5508;49.150;11.030;2023-11-22T00:51:09;2.90;99.90
10911;DHT22;5508;49.150;11.030;2023-11-22T00:54:11;2.90;99.90
10911;DHT22;5508;49.150;11.030;2023-11-22T00:57:11;2.90;99.90
10911;DHT22;5508;49.150;11.030;2023-11-22T01:00:12;2.90;99.90
10911;DHT22;5508;49.150;11.030;2023-11-22T01:03:14;2.90;99.90
10911;DHT22;5508;49.150;11.030;2023-11-22T01:06:14;2.80;99.90
10911;DHT22;5508;49.150;11.030;2023-11-22T01:09:15;2.80;99.90
10911;DHT22;5508;49.150;11.030;2023-11-22T01:12:16;2.80;99.90
10911;DHT22;5508;49.150;11.030;2023-11-22T01:15:16;2.80;99.90
10911;DHT22;5508;49.150;11.030;2023-11-22T01:18:17;2.80;99.90
10911;DHT22;5508;49.150;11.030;2023-11-22T01:21:18;2.80;99.90
10911;DHT22;5508;49.150;11.030;2023-11-22T01:24:18;2.70;99.90
10911;DHT22;5508;49.150;11.030;2023-11-22T01:27:19;2.70;99.90
10911;DHT22;5508;49.150;11.030;2023-11-22T01:30:20;2.70;99.90
10911;DHT22;5508;49.150;11.030;2023-11-22T01:33:21;2.70;99.90
10911;DHT22;5508;49.150;11.030;2023-11-22T01:36:22;2.60;99.90
10911;DHT22;5508;49.150;11.030;2023-11-22T01:39:22;2.60;99.90
10911;DHT22;5508;49.150;11.030;2023-11-22T01:42:23;2.60;99.90
10911;DHT22;5508;49.150;11.030;2023-11-22T01:45:24;2.60;99.90
10911;DHT22;5508;49.150;11.030;2023-11-22T01:48:26;2.60;99.90
10911;DHT22;5508;49.150;11.030;2023-11-22T01:51:27;2.60;99.90
10911;DHT22;5508;49.150;11.030;2023-11-22T01:54:28;2.60;99.90
10911;DHT22;5508;49.150;11.030;2023-11-22T01:57:31;2.50;99.90
10911;DHT22;5508;49.150;11.030;2023-11-22T02:00:45;2.60;99.90
10911;DHT22;5508;49.150;11.030;2023-11-22T02:03:48;2.50;99.90
10911;DHT22;5508;49.150;11.030;2023-11-22T02:06:51;2.50;99.90
10911;DHT22;5508;49.150;11.030;2023-11-22T02:09:51;2.50;99.90
10911;DHT22;5508;49.150;11.030;2023-11-22T02:12:53;2.40;99.90
10911;DHT22;5508;49.150;11.030;2023-11-22T02:15:53;2.40;99.90
10911;DHT22;5508;49.150;11.030;2023-11-22T02:18:56;2.30;99.90
10911;DHT22;5508;49.150;11.030;2023-11-22T02:21:57;2.30;99.90
10911;DHT22;5508;49.150;11.030;2023-11-22T02:24:57;2.20;99.90
10911;DHT22;5508;49.150;11.030;2023-11-22T02:27:58;2.10;99.90
10911;DHT22;5508;49.150;11.030;2023-11-22T02:30:58;2.10;99.90
10911;DHT22;5508;49.150;11.030;2023-11-22T02:33:59;2.10;99.90
10911;DHT22;5508;49.150;11.030;2023-11-22T02:37:00;2.00;99.90
10911;DHT22;5508;49.150;11.030;2023-11-22T02:43:01;1.90;99.90
10911;DHT22;5508;49.150;11.030;2023-11-22T02:46:10;1.80;99.90
10911;DHT22;5508;49.150;11.030;2023-11-22T02:49:10;1.80;99.90
10911;DHT22;5508;49.150;11.030;2023-11-22T02:52:11;1.70;99.90
10911;DHT22;5508;49.150;11.030;2023-11-22T02:55:14;1.80;99.90
10911;DHT22;5508;49.150;11.030;2023-11-22T02:58:15;1.70;99.90
10911;DHT22;5508;49.150;11.030;2023-11-22T03:01:16;1.60;99.90
10911;DHT22;5508;49.150;11.030;2023-11-22T03:04:18;1.60;99.90
10911;DHT22;5508;49.150;11.030;2023-11-22T03:07:18;1.60;99.90
10911;DHT22;5508;49.150;11.030;2023-11-22T03:10:19;1.50;99.90
10911;DHT22;5508;49.150;11.030;2023-11-22T03:13:19;1.50;99.90
10911;DHT22;5508;49.150;11.030;2023-11-22T03:16:20;1.50;99.90
10911;DHT22;5508;49.150;11.030;2023-11-22T03:19:21;1.50;99.90
10911;DHT22;5508;49.150;11.030;2023-11-22T03:22:21;1.50;99.90
10911;DHT22;5508;49.150;11.030;2023-11-22T03:25:22;1.40;99.90
10911;DHT22;5508;49.150;11.030;2023-11-22T03:28:23;1.40;99.90
10911;DHT22;5508;49.150;11.030;2023-11-22T03:31:24;1.40;99.90
10911;DHT22;5508;49.150;11.030;2023-11-22T03:34:24;1.40;99.90
10911;DHT22;5508;49.150;11.030;2023-11-22T03:37:25;1.40;99.90
10911;DHT22;5508;49.150;11.030;2023-11-22T03:40:25;1.40;99.90
10911;DHT22;5508;49.150;11.030;2023-11-22T03:43:26;1.40;99.90
10911;DHT22;5508;49.150;11.030;2023-11-22T03:46:27;1.40;99.90
10911;DHT22;5508;49.150;11.030;2023-11-22T03:49:27;1.30;99.90
10911;DHT22;5508;49.150;11.030;2023-11-22T03:52:28;1.30;99.90
10911;DHT22;5508;49.150;11.030;2023-11-22T03:55:28;1.30;99.90
10911;DHT22;5508;49.150;11.030;2023-11-22T03:58:29;1.20;99.90
10911;DHT22;5508;49.150;11.030;2023-11-22T04:01:30;1.20;99.90
10911;DHT22;5508;49.150;11.030;2023-11-22T04:04:31;1.20;99.90
10911;DHT22;5508;49.150;11.030;2023-11-22T04:07:31;1.20;99.90
10911;DHT22;5508;49.150;11.030;2023-11-22T04:10:32;1.20;99.90
10911;DHT22;5508;49.150;11.030;2023-11-22T04:13:33;1.20;99.90
10911;DHT22;5508;49.150;11.030;2023-11-22T04:16:33;1.10;99.90
10911;DHT22;5508;49.150;11.030;2023-11-22T04:19:34;1.20;99.90
10911;DHT22;5508;49.150;11.030;2023-11-22T04:22:36;1.10;99.90
10911;DHT22;5508;49.150;11.030;2023-11-22T04:25:37;1.10;99.90
10911;DHT22;5508;49.150;11.030;2023-11-22T04:28:37;1.10;99.90
10911;DHT22;5508;49.150;11.030;2023-11-22T04:31:38;1.10;99.90
10911;DHT22;5508;49.150;11.030;2023-11-22T04:34:38;1.10;99.90
10911;DHT22;5508;49.150;11.030;2023-11-22T04:37:39;1.00;99.90
10911;DHT22;5508;49.150;11.030;2023-11-22T04:40:40;1.00;99.90
10911;DHT22;5508;49.150;11.030;2023-11-22T04:43:40;0.90;99.90
10911;DHT22;5508;49.150;11.030;2023-11-22T04:46:41;1.00;99.90
10911;DHT22;5508;49.150;11.030;2023-11-22T04:49:41;1.00;99.90
10911;DHT22;5508;49.150;11.030;2023-11-22T04:52:42;1.00;99.90
10911;DHT22;5508;49.150;11.030;2023-11-22T04:55:42;1.00;99.90
10911;DHT22;5508;49.150;11.030;2023-11-22T04:58:43;1.00;99.90
10911;DHT22;5508;49.150;11.030;2023-11-22T05:01:43;1.00;99.90
10911;DHT22;5508;49.150;11.030;2023-11-22T05:04:44;1.00;99.90
10911;DHT22;5508;49.150;11.030;2023-11-22T05:07:48;1.00;99.90
10911;DHT22;5508;49.150;11.030;2023-11-22T05:10:49;1.00;99.90
10911;DHT22;5508;49.150;11.030;2023-11-22T05:13:50;1.00;99.90
10911;DHT22;5508;49.150;11.030;2023-11-22T05:16:50;1.00;99.90
10911;DHT22;5508;49.150;11.030;2023-11-22T05:19:51;0.90;99.90
10911;DHT22;5508;49.150;11.030;2023-11-22T05:22:51;0.90;99.90
10911;DHT22;5508;49.150;11.030;2023-11-22T05:25:52;0.80;99.90
10911;DHT22;5508;49.150;11.030;2023-11-22T05:28:53;0.90;99.90
10911;DHT22;5508;49.150;11.030;2023-11-22T05:31:54;0.90;99.90
10911;DHT22;5508;49.150;11.030;2023-11-22T05:34:54;0.90;99.90
10911;DHT22;5508;49.150;11.030;2023-11-22T05:37:55;0.90;99.90
10911;DHT22;5508;49.150;11.030;2023-11-22T05:40:55;0.90;99.90
10911;DHT22;5508;49.150;11.030;2023-11-22T05:43:56;0.90;99.90
10911;DHT22;5508;49.150;11.030;2023-11-22T05:46:56;0.90;99.90
10911;DHT22;5508;49.150;11.030;2023-11-22T05:49:57;0.90;99.90
10911;DHT22;5508;49.150;11.030;2023-11-22T05:52:57;0.90;99.90
10911;DHT22;5508;49.150;11.030;2023-11-22T05:55:58;0.90;99.90
10911;DHT22;5508;49.150;11.030;2023-11-22T05:59:00;0.90;99.90
10911;DHT22;5508;49.150;11.030;2023-11-22T06:02:01;0.90;99.90
10911;DHT22;5508;49.150;11.030;2023-11-22T06:05:01;0.90;99.90
10911;DHT22;5508;49.150;11.030;2023-11-22T06:08:02;0.90;99.90
10911;DHT22;5508;49.150;11.030;2023-11-22T06:11:03;0.90;99.90
10911;DHT22;5508;49.150;11.030;2023-11-22T06:14:03;0.80;99.90
10911;DHT22;5508;49.150;11.030;2023-11-22T06:17:04;0.80;99.90
10911;DHT22;5508;49.150;11.030;2023-11-22T06:20:05;0.80;99.90
10911;DHT22;5508;49.150;11.030;2023-11-22T06:23:07;0.80;99.80
10911;DHT22;5508;49.150;11.030;2023-11-22T06:26:07;0.80;99.90
10911;DHT22;5508;49.150;11.030;2023-11-22T06:29:08;0.80;99.90
10911;DHT22;5508;49.150;11.030;2023-11-22T06:32:09;0.80;99.90
10911;DHT22;5508;49.150;11.030;2023-11-22T06:35:10;0.80;99.90
10911;DHT22;5508;49.150;11.030;2023-11-22T06:38:14;0.80;99.90
10911;DHT22;5508;49.150;11.030;2023-11-22T06:41:15;0.80;99.90
10911;DHT22;5508;49.150;11.030;2023-11-22T06:44:17;0.80;99.90
10911;DHT22;5508;49.150;11.030;2023-11-22T06:47:19;0.80;99.90
10911;DHT22;5508;49.150;11.030;2023-11-22T06:50:20;0.80;99.90
10911;DHT22;5508;49.150;11.030;2023-11-22T06:53:21;0.80;99.90
10911;DHT22;5508;49.150;11.030;2023-11-22T06:56:21;0.80;99.90
10911;DHT22;5508;49.150;11.030;2023-11-22T06:59:23;0.80;98.80
10911;DHT22;5508;49.150;11.030;2023-11-22T07:02:23;0.80;99.70
10911;DHT22;5508;49.150;11.030;2023-11-22T07:05:24;0.80;99.80
10911;DHT22;5508;49.150;11.030;2023-11-22T07:08:25;0.90;99.00
10911;DHT22;5508;49.150;11.030;2023-11-22T07:11:27;0.80;99.30
10911;DHT22;5508;49.150;11.030;2023-11-22T07:14:31;0.90;98.30
10911;DHT22;5508;49.150;11.030;2023-11-22T07:17:31;0.80;98.30
10911;DHT22;5508;49.150;11.030;2023-11-22T07:20:33;0.90;98.90
10911;DHT22;5508;49.150;11.030;2023-11-22T07:23:34;0.90;98.20
10911;DHT22;5508;49.150;11.030;2023-11-22T07:26:35;0.80;95.40
10911;DHT22;5508;49.150;11.030;2023-11-22T07:29:41;0.80;95.40
10911;DHT22;5508;49.150;11.030;2023-11-22T07:32:42;0.80;96.10
10911;DHT22;5508;49.150;11.030;2023-11-22T07:35:43;0.80;96.50
10911;DHT22;5508;49.150;11.030;2023-11-22T07:38:43;0.80;96.90
10911;DHT22;5508;49.150;11.030;2023-11-22T07:41:44;0.90;97.30
10911;DHT22;5508;49.150;11.030;2023-11-22T07:44:45;0.90;98.60
10911;DHT22;5508;49.150;11.030;2023-11-22T07:47:47;0.90;94.90
10911;DHT22;5508;49.150;11.030;2023-11-22T07:50:47;0.90;95.10
10911;DHT22;5508;49.150;11.030;2023-11-22T07:53:49;0.80;96.00
10911;DHT22;5508;49.150;11.030;2023-11-22T07:56:50;0.80;95.70
10911;DHT22;5508;49.150;11.030;2023-11-22T07:59:52;0.90;95.50
10911;DHT22;5508;49.150;11.030;2023-11-22T08:02:55;0.80;94.00
10911;DHT22;5508;49.150;11.030;2023-11-22T08:05:57;0.80;93.80
10911;DHT22;5508;49.150;11.030;2023-11-22T08:08:59;0.80;94.00
10911;DHT22;5508;49.150;11.030;2023-11-22T08:12:02;0.80;94.70
10911;DHT22;5508;49.150;11.030;2023-11-22T08:15:03;0.80;95.00
10911;DHT22;5508;49.150;11.030;2023-11-22T08:18:04;0.80;95.10
10911;DHT22;5508;49.150;11.030;2023-11-22T08:21:06;0.80;92.90
10911;DHT22;5508;49.150;11.030;2023-11-22T08:24:07;0.80;94.00
10911;DHT22;5508;49.150;11.030;2023-11-22T08:27:07;0.80;93.70
10911;DHT22;5508;49.150;11.030;2023-11-22T08:30:09;0.80;94.80
10911;DHT22;5508;49.150;11.030;2023-11-22T08:33:13;0.80;91.70
10911;DHT22;5508;49.150;11.030;2023-11-22T08:36:14;0.80;89.70
10911;DHT22;5508;49.150;11.030;2023-11-22T08:39:14;0.80;91.30
10911;DHT22;5508;49.150;11.030;2023-11-22T08:42:15;0.80;91.30
10911;DHT22;5508;49.150;11.030;2023-11-22T08:45:16;0.80;90.30
10911;DHT22;5508;49.150;11.030;2023-11-22T08:48:16;0.80;88.20
10911;DHT22;5508;49.150;11.030;2023-11-22T08:51:18;0.80;89.20
10911;DHT22;5508;49.150;11.030;2023-11-22T08:54:18;0.80;90.00
10911;DHT22;5508;49.150;11.030;2023-11-22T08:57:19;0.80;91.50
10911;DHT22;5508;49.150;11.030;2023-11-22T09:00:20;0.80;89.60
10911;DHT22;5508;49.150;11.030;2023-11-22T09:03:23;0.80;91.40
10911;DHT22;5508;49.150;11.030;2023-11-22T09:06:24;0.80;90.40
10911;DHT22;5508;49.150;11.030;2023-11-22T09:09:24;0.80;89.90
10911;DHT22;5508;49.150;11.030;2023-11-22T09:12:31;0.90;91.30
10911;DHT22;5508;49.150;11.030;2023-11-22T09:15:31;1.00;92.00
10911;DHT22;5508;49.150;11.030;2023-11-22T09:18:34;1.00;90.40
10911;DHT22;5508;49.150;11.030;2023-11-22T09:21:34;1.00;89.40
10911;DHT22;5508;49.150;11.030;2023-11-22T09:24:35;1.00;90.80
10911;DHT22;5508;49.150;11.030;2023-11-22T09:27:37;1.00;90.50
10911;DHT22;5508;49.150;11.030;2023-11-22T09:30:37;1.10;92.00
10911;DHT22;5508;49.150;11.030;2023-11-22T09:33:41;1.00;90.80
10911;DHT22;5508;49.150;11.030;2023-11-22T09:36:42;1.10;90.20
10911;DHT22;5508;49.150;11.030;2023-11-22T09:39:43;1.10;89.70
10911;DHT22;5508;49.150;11.030;2023-11-22T09:42:44;1.10;89.70
10911;DHT22;5508;49.150;11.030;2023-11-22T09:45:51;1.20;91.30
10911;DHT22;5508;49.150;11.030;2023-11-22T09:48:52;1.30;88.70
10911;DHT22;5508;49.150;11.030;2023-11-22T09:51:57;1.30;89.20
10911;DHT22;5508;49.150;11.030;2023-11-22T09:54:58;1.40;89.60
10911;DHT22;5508;49.150;11.030;2023-11-22T09:58:01;1.40;90.10
10911;DHT22;5508;49.150;11.030;2023-11-22T10:01:02;1.40;89.50
10911;DHT22;5508;49.150;11.030;2023-11-22T10:04:06;1.50;92.30
10911;DHT22;5508;49.150;11.030;2023-11-22T10:07:07;1.40;91.50
10911;DHT22;5508;49.150;11.030;2023-11-22T10:10:09;1.40;90.40
10911;DHT22;5508;49.150;11.030;2023-11-22T10:13:11;1.40;90.70
10911;DHT22;5508;49.150;11.030;2023-11-22T10:16:13;1.40;88.90
10911;DHT22;5508;49.150;11.030;2023-11-22T10:19:17;1.40;90.00
10911;DHT22;5508;49.150;11.030;2023-11-22T10:22:18;1.30;90.50
10911;DHT22;5508;49.150;11.030;2023-11-22T10:25:21;1.40;91.60
10911;DHT22;5508;49.150;11.030;2023-11-22T10:28:26;1.40;91.60
10911;DHT22;5508;49.150;11.030;2023-11-22T10:31:28;1.50;92.00
10911;DHT22;5508;49.150;11.030;2023-11-22T10:34:29;1.50;91.80
10911;DHT22;5508;49.150;11.030;2023-11-22T10:37:30;1.60;90.80
10911;DHT22;5508;49.150;11.030;2023-11-22T10:40:30;1.60;89.10
10911;DHT22;5508;49.150;11.030;2023-11-22T10:43:31;1.70;90.80
10911;DHT22;5508;49.150;11.030;2023-11-22T10:46:36;1.70;91.00
10911;DHT22;5508;49.150;11.030;2023-11-22T10:49:39;1.80;89.60
10911;DHT22;5508;49.150;11.030;2023-11-22T10:52:41;1.80;89.50
10911;DHT22;5508;49.150;11.030;2023-11-22T10:55:45;2.00;91.10
10911;DHT22;5508;49.150;11.030;2023-11-22T10:58:51;2.00;88.60
10911;DHT22;5508;49.150;11.030;2023-11-22T11:01:53;2.10;89.50
10911;DHT22;5508;49.150;11.030;2023-11-22T11:05:03;2.20;88.90
10911;DHT22;5508;49.150;11.030;2023-11-22T11:08:09;2.30;88.70
10911;DHT22;5508;49.150;11.030;2023-11-22T11:11:14;2.30;87.10
10911;DHT22;5508;49.150;11.030;2023-11-22T11:14:16;2.20;87.60
10911;DHT22;5508;49.150;11.030;2023-11-22T11:17:18;2.20;86.50
10911;DHT22;5508;49.150;11.030;2023-11-22T11:20:19;2.00;86.80
10911;DHT22;5508;49.150;11.030;2023-11-22T11:23:25;2.00;86.10
10911;DHT22;5508;49.150;11.030;2023-11-22T11:26:26;2.00;86.20
10911;DHT22;5508;49.150;11.030;2023-11-22T11:29:35;2.00;87.00
10911;DHT22;5508;49.150;11.030;2023-11-22T11:32:37;2.00;86.40
10911;DHT22;5508;49.150;11.030;2023-11-22T11:35:42;1.90;87.10
10911;DHT22;5508;49.150;11.030;2023-11-22T11:38:43;2.00;86.60
10911;DHT22;5508;49.150;11.030;2023-11-22T11:41:43;2.00;89.10
10911;DHT22;5508;49.150;11.030;2023-11-22T11:47:57;2.10;91.60
10911;DHT22;5508;49.150;11.030;2023-11-22T11:50:58;2.10;88.90
10911;DHT22;5508;49.150;11.030;2023-11-22T11:53:58;2.00;89.80
10911;DHT22;5508;49.150;11.030;2023-11-22T11:57:00;2.00;89.50
10911;DHT22;5508;49.150;11.030;2023-11-22T12:00:01;2.00;88.60
10911;DHT22;5508;49.150;11.030;2023-11-22T12:03:04;2.00;88.60
10911;DHT22;5508;49.150;11.030;2023-11-22T12:06:06;2.10;90.80
10911;DHT22;5508;49.150;11.030;2023-11-22T12:09:07;2.10;91.80
10911;DHT22;5508;49.150;11.030;2023-11-22T12:12:08;2.10;90.50
10911;DHT22;5508;49.150;11.030;2023-11-22T12:15:09;2.00;89.00
10911;DHT22;5508;49.150;11.030;2023-11-22T12:18:10;1.90;89.40
10911;DHT22;5508;49.150;11.030;2023-11-22T12:21:12;1.90;90.50
10911;DHT22;5508;49.150;11.030;2023-11-22T12:24:13;1.90;91.40
10911;DHT22;5508;49.150;11.030;2023-11-22T12:27:15;1.80;92.30
10911;DHT22;5508;49.150;11.030;2023-11-22T12:33:30;1.70;90.50
10911;DHT22;5508;49.150;11.030;2023-11-22T12:36:30;1.70;92.90
10911;DHT22;5508;49.150;11.030;2023-11-22T12:39:31;1.80;92.20
10911;DHT22;5508;49.150;11.030;2023-11-22T12:42:32;1.70;91.80
10911;DHT22;5508;49.150;11.030;2023-11-22T12:45:33;1.60;91.00
10911;DHT22;5508;49.150;11.030;2023-11-22T12:48:39;1.50;91.10
10911;DHT22;5508;49.150;11.030;2023-11-22T12:51:49;1.50;93.50
10911;DHT22;5508;49.150;11.030;2023-11-22T12:54:49;1.60;93.90
10911;DHT22;5508;49.150;11.030;2023-11-22T12:57:59;1.60;92.50
10911;DHT22;5508;49.150;11.030;2023-11-22T13:01:02;1.50;92.60
10911;DHT22;5508;49.150;11.030;2023-11-22T13:04:03;1.50;92.20
10911;DHT22;5508;49.150;11.030;2023-11-22T13:07:04;1.50;92.20
10911;DHT22;5508;49.150;11.030;2023-11-22T13:10:05;1.50;93.80
10911;DHT22;5508;49.150;11.030;2023-11-22T13:13:06;1.40;95.70
10911;DHT22;5508;49.150;11.030;2023-11-22T13:16:09;1.40;95.10
10911;DHT22;5508;49.150;11.030;2023-11-22T13:19:10;1.30;97.40
10911;DHT22;5508;49.150;11.030;2023-11-22T13:22:11;1.30;95.70
10911;DHT22;5508;49.150;11.030;2023-11-22T13:25:12;1.40;97.40
10911;DHT22;5508;49.150;11.030;2023-11-22T13:28:19;1.40;96.50
10911;DHT22;5508;49.150;11.030;2023-11-22T13:31:20;1.40;95.90
10911;DHT22;5508;49.150;11.030;2023-11-22T13:34:21;1.30;94.80
10911;DHT22;5508;49.150;11.030;2023-11-22T13:37:26;1.20;95.60
10911;DHT22;5508;49.150;11.030;2023-11-22T13:40:28;1.10;96.10
10911;DHT22;5508;49.150;11.030;2023-11-22T13:43:31;1.20;98.30
10911;DHT22;5508;49.150;11.030;2023-11-22T13:46:33;1.20;97.10
10911;DHT22;5508;49.150;11.030;2023-11-22T13:49:34;1.30;97.50
10911;DHT22;5508;49.150;11.030;2023-11-22T13:52:34;1.30;97.20
10911;DHT22;5508;49.150;11.030;2023-11-22T13:55:35;1.30;96.50
10911;DHT22;5508;49.150;11.030;2023-11-22T13:58:37;1.20;94.40
10911;DHT22;5508;49.150;11.030;2023-11-22T14:01:38;1.20;96.90
10911;DHT22;5508;49.150;11.030;2023-11-22T14:04:40;1.20;97.40
10911;DHT22;5508;49.150;11.030;2023-11-22T14:07:41;1.20;97.70
10911;DHT22;5508;49.150;11.030;2023-11-22T14:10:42;1.20;97.70
10911;DHT22;5508;49.150;11.030;2023-11-22T14:13:42;1.30;97.70
10911;DHT22;5508;49.150;11.030;2023-11-22T14:16:43;1.30;97.50
10911;DHT22;5508;49.150;11.030;2023-11-22T14:19:45;1.30;97.30
10911;DHT22;5508;49.150;11.030;2023-11-22T14:22:47;1.20;96.90
10911;DHT22;5508;49.150;11.030;2023-11-22T14:25:48;1.10;96.30
10911;DHT22;5508;49.150;11.030;2023-11-22T14:28:49;1.20;96.60
10911;DHT22;5508;49.150;11.030;2023-11-22T14:31:50;1.10;95.00
10911;DHT22;5508;49.150;11.030;2023-11-22T14:34:52;1.10;97.00
10911;DHT22;5508;49.150;11.030;2023-11-22T14:37:53;1.10;97.00
10911;DHT22;5508;49.150;11.030;2023-11-22T14:40:54;1.10;96.90
10911;DHT22;5508;49.150;11.030;2023-11-22T14:43:56;1.10;96.60
10911;DHT22;5508;49.150;11.030;2023-11-22T14:46:57;1.10;97.10
10911;DHT22;5508;49.150;11.030;2023-11-22T14:49:59;1.10;96.80
10911;DHT22;5508;49.150;11.030;2023-11-22T14:53:00;1.10;97.60
10911;DHT22;5508;49.150;11.030;2023-11-22T14:56:00;1.00;97.10
10911;DHT22;5508;49.150;11.030;2023-11-22T14:59:03;1.10;97.20
10911;DHT22;5508;49.150;11.030;2023-11-22T15:02:04;0.90;96.90
10911;DHT22;5508;49.150;11.030;2023-11-22T15:05:09;0.90;98.20
10911;DHT22;5508;49.150;11.030;2023-11-22T15:08:10;0.90;98.20
10911;DHT22;5508;49.150;11.030;2023-11-22T15:11:10;0.90;99.00
10911;DHT22;5508;49.150;11.030;2023-11-22T15:14:11;0.90;98.00
10911;DHT22;5508;49.150;11.030;2023-11-22T15:17:13;1.00;98.30
10911;DHT22;5508;49.150;11.030;2023-11-22T15:20:14;1.00;97.20
10911;DHT22;5508;49.150;11.030;2023-11-22T15:23:16;1.00;96.40
10911;DHT22;5508;49.150;11.030;2023-11-22T15:26:16;1.00;97.40
10911;DHT22;5508;49.150;11.030;2023-11-22T15:29:17;1.00;97.30
10911;DHT22;5508;49.150;11.030;2023-11-22T15:32:18;0.90;97.70
10911;DHT22;5508;49.150;11.030;2023-11-22T15:35:19;0.90;99.70
10911;DHT22;5508;49.150;11.030;2023-11-22T15:38:20;1.00;98.30
10911;DHT22;5508;49.150;11.030;2023-11-22T15:41:22;0.90;99.10
10911;DHT22;5508;49.150;11.030;2023-11-22T15:44:23;0.90;98.70
10911;DHT22;5508;49.150;11.030;2023-11-22T15:47:23;0.90;97.40
10911;DHT22;5508;49.150;11.030;2023-11-22T15:50:24;0.90;98.70
10911;DHT22;5508;49.150;11.030;2023-11-22T15:53:25;0.80;99.10
10911;DHT22;5508;49.150;11.030;2023-11-22T15:56:26;0.80;98.40
10911;DHT22;5508;49.150;11.030;2023-11-22T15:59:27;0.80;98.40
10911;DHT22;5508;49.150;11.030;2023-11-22T16:02:28;0.90;97.70
10911;DHT22;5508;49.150;11.030;2023-11-22T16:05:28;0.80;96.70
10911;DHT22;5508;49.150;11.030;2023-11-22T16:08:32;0.70;97.00
10911;DHT22;5508;49.150;11.030;2023-11-22T16:11:33;0.70;97.30
10911;DHT22;5508;49.150;11.030;2023-11-22T16:14:34;0.60;97.40
10911;DHT22;5508;49.150;11.030;2023-11-22T16:17:34;0.70;97.90
10911;DHT22;5508;49.150;11.030;2023-11-22T16:20:36;0.70;98.50
10911;DHT22;5508;49.150;11.030;2023-11-22T16:23:37;0.70;98.20
10911;DHT22;5508;49.150;11.030;2023-11-22T16:26:37;0.60;97.30
10911;DHT22;5508;49.150;11.030;2023-11-22T16:29:38;0.60;98.40
10911;DHT22;5508;49.150;11.030;2023-11-22T16:32:38;0.70;98.90
10911;DHT22;5508;49.150;11.030;2023-11-22T16:35:39;0.80;98.60
10911;DHT22;5508;49.150;11.030;2023-11-22T16:38:40;0.70;98.40
10911;DHT22;5508;49.150;11.030;2023-11-22T16:41:41;0.70;98.40
10911;DHT22;5508;49.150;11.030;2023-11-22T16:44:41;0.70;98.50
10911;DHT22;5508;49.150;11.030;2023-11-22T16:47:43;0.60;98.00
10911;DHT22;5508;49.150;11.030;2023-11-22T16:50:44;0.60;98.80
10911;DHT22;5508;49.150;11.030;2023-11-22T16:53:44;0.70;98.90
10911;DHT22;5508;49.150;11.030;2023-11-22T16:56:45;0.70;99.40
10911;DHT22;5508;49.150;11.030;2023-11-22T16:59:45;0.70;97.50
10911;DHT22;5508;49.150;11.030;2023-11-22T17:02:47;0.60;97.10
10911;DHT22;5508;49.150;11.030;2023-11-22T17:05:50;0.60;98.40
10911;DHT22;5508;49.150;11.030;2023-11-22T17:08:51;0.60;99.20
10911;DHT22;5508;49.150;11.030;2023-11-22T17:11:52;0.70;99.60
10911;DHT22;5508;49.150;11.030;2023-11-22T17:14:52;0.70;99.00
10911;DHT22;5508;49.150;11.030;2023-11-22T17:17:53;0.60;99.60
10911;DHT22;5508;49.150;11.030;2023-11-22T17:20:53;0.70;99.40
10911;DHT22;5508;49.150;11.030;2023-11-22T17:23:56;0.70;99.90
10911;DHT22;5508;49.150;11.030;2023-11-22T17:26:57;0.70;98.30
10911;DHT22;5508;49.150;11.030;2023-11-22T17:29:57;0.60;98.60
10911;DHT22;5508;49.150;11.030;2023-11-22T17:32:58;0.60;98.40
10911;DHT22;5508;49.150;11.030;2023-11-22T17:35:58;0.50;97.60
10911;DHT22;5508;49.150;11.030;2023-11-22T17:38:59;0.50;97.00
10911;DHT22;5508;49.150;11.030;2023-11-22T17:41:59;0.50;98.10
10911;DHT22;5508;49.150;11.030;2023-11-22T17:45:00;0.50;98.30
10911;DHT22;5508;49.150;11.030;2023-11-22T17:48:01;0.60;98.50
10911;DHT22;5508;49.150;11.030;2023-11-22T17:51:01;0.60;98.70
10911;DHT22;5508;49.150;11.030;2023-11-22T17:54:02;0.70;98.00
10911;DHT22;5508;49.150;11.030;2023-11-22T17:57:03;0.70;98.20
10911;DHT22;5508;49.150;11.030;2023-11-22T18:00:05;0.70;99.70
10911;DHT22;5508;49.150;11.030;2023-11-22T18:03:05;0.60;99.90
10911;DHT22;5508;49.150;11.030;2023-11-22T18:06:08;0.60;99.70
10911;DHT22;5508;49.150;11.030;2023-11-22T18:09:08;0.60;99.90
10911;DHT22;5508;49.150;11.030;2023-11-22T18:12:10;0.60;99.90
10911;DHT22;5508;49.150;11.030;2023-11-22T18:15:11;0.60;99.90
10911;DHT22;5508;49.150;11.030;2023-11-22T18:18:14;0.60;99.90
10911;DHT22;5508;49.150;11.030;2023-11-22T18:21:15;0.50;99.90
10911;DHT22;5508;49.150;11.030;2023-11-22T18:24:15;0.60;99.90
10911;DHT22;5508;49.150;11.030;2023-11-22T18:27:16;0.50;99.90
10911;DHT22;5508;49.150;11.030;2023-11-22T18:30:17;0.50;99.90
10911;DHT22;5508;49.150;11.030;2023-11-22T18:33:17;0.60;99.60
10911;DHT22;5508;49.150;11.030;2023-11-22T18:36:18;0.50;99.90
10911;DHT22;5508;49.150;11.030;2023-11-22T18:39:20;0.60;99.90
10911;DHT22;5508;49.150;11.030;2023-11-22T18:42:22;0.50;99.80
10911;DHT22;5508;49.150;11.030;2023-11-22T18:45:22;0.50;99.90
10911;DHT22;5508;49.150;11.030;2023-11-22T18:48:23;0.50;99.90
10911;DHT22;5508;49.150;11.030;2023-11-22T18:51:24;0.60;99.90
10911;DHT22;5508;49.150;11.030;2023-11-22T18:54:25;0.60;99.90
10911;DHT22;5508;49.150;11.030;2023-11-22T18:57:26;0.60;99.90
10911;DHT22;5508;49.150;11.030;2023-11-22T19:00:27;0.60;99.90
10911;DHT22;5508;49.150;11.030;2023-11-22T19:03:27;0.50;99.90
10911;DHT22;5508;49.150;11.030;2023-11-22T19:06:28;0.60;99.90
10911;DHT22;5508;49.150;11.030;2023-11-22T19:09:29;0.60;99.90
10911;DHT22;5508;49.150;11.030;2023-11-22T19:12:29;0.60;99.90
10911;DHT22;5508;49.150;11.030;2023-11-22T19:15:44;0.60;99.90
10911;DHT22;5508;49.150;11.030;2023-11-22T19:18:46;0.50;99.90
10911;DHT22;5508;49.150;11.030;2023-11-22T19:21:47;0.50;99.90
10911;DHT22;5508;49.150;11.030;2023-11-22T19:24:48;0.50;99.90
10911;DHT22;5508;49.150;11.030;2023-11-22T19:27:49;0.50;99.90
10911;DHT22;5508;49.150;11.030;2023-11-22T19:30:49;0.60;99.90
10911;DHT22;5508;49.150;11.030;2023-11-22T19:33:50;0.50;99.90